createdAt,value
2018-09-22T00:00:36.890Z,17.95
2018-09-22T00:01:35.619Z,18.1
2018-09-22T00:05:14.646Z,17.7
2018-09-22T00:07:55.189Z,17.37
2018-09-22T00:08:53.820Z,17.46
2018-09-22T00:09:52.423Z,17.4
2018-09-22T00:10:51.091Z,17.49
2018-09-22T00:11:49.755Z,17.56
2018-09-22T00:12:48.404Z,17.56
2018-09-22T00:13:47.010Z,17.62
2018-09-22T00:14:45.557Z,17.63
2018-09-22T00:15:44.238Z,17.63
2018-09-22T00:16:42.880Z,17.63
2018-09-22T00:17:41.580Z,17.63
2018-09-22T00:18:40.127Z,17.59
2018-09-22T00:19:38.788Z,17.63
2018-09-22T00:20:37.401Z,17.78
2018-09-22T00:21:37.057Z,17.84
2018-09-22T00:22:34.812Z,17.86
2018-09-22T00:23:33.437Z,17.92
2018-09-22T00:24:32.114Z,17.95
2018-09-22T00:25:30.760Z,17.81
2018-09-22T00:26:29.338Z,17.84
2018-09-22T00:27:27.988Z,17.74
2018-09-22T00:28:26.850Z,17.77
2018-09-22T00:29:25.644Z,17.72
2018-09-22T00:30:24.175Z,17.74
2018-09-22T00:33:04.397Z,17.58
2018-09-22T00:34:03.127Z,17.74
2018-09-22T00:35:01.864Z,17.79
2018-09-22T00:36:00.502Z,17.82
2018-09-22T00:36:59.147Z,17.89
2018-09-22T00:40:38.224Z,17.84
2018-09-22T00:41:36.794Z,17.95
2018-09-22T00:42:35.512Z,17.99
2018-09-22T00:43:34.092Z,17.84
2018-09-22T00:44:32.688Z,18.08
2018-09-22T00:45:31.280Z,17.78
2018-09-22T00:46:29.988Z,17.93
2018-09-22T00:47:28.977Z,17.93
2018-09-22T00:48:27.649Z,17.78
2018-09-22T00:49:27.132Z,17.77
2018-09-22T00:50:25.749Z,17.93
2018-09-22T00:54:04.715Z,17.78
2018-09-22T00:55:03.406Z,17.82
2018-09-22T00:56:02.037Z,17.79
2018-09-22T00:57:00.648Z,17.92
2018-09-22T00:57:59.257Z,17.93
2018-09-22T00:58:57.747Z,17.97
2018-09-22T01:01:20.539Z,17.95
2018-09-22T01:02:19.172Z,17.9
2018-09-22T01:04:59.386Z,17.75
2018-09-22T01:05:58.015Z,17.77
2018-09-22T01:06:56.693Z,17.68
2018-09-22T01:07:55.252Z,17.68
2018-09-22T01:10:35.390Z,17.59
2018-09-22T01:11:34.191Z,17.52
2018-09-22T01:12:32.980Z,17.48
2018-09-22T01:13:31.645Z,17.46
2018-09-22T01:14:30.185Z,17.48
2018-09-22T01:33:21.189Z,17.31
2018-09-22T01:34:19.815Z,17.34
2018-09-22T01:35:18.429Z,17.46
2018-09-22T01:36:16.993Z,17.55
2018-09-22T01:37:15.752Z,17.63
2018-09-22T01:39:55.912Z,17.49
2018-09-22T01:40:54.633Z,17.41
2018-09-22T01:41:53.316Z,17.49
2018-09-22T01:42:51.838Z,17.59
2018-09-22T01:45:32.360Z,17.48
2018-09-22T01:46:30.963Z,17.49
2018-09-22T01:47:29.482Z,17.51
2018-09-22T01:48:28.419Z,17.48
2018-09-22T01:49:26.972Z,17.52
2018-09-22T01:50:25.484Z,17.55
2018-09-22T01:51:24.230Z,17.59
2018-09-22T01:52:23.026Z,17.75
2018-09-22T01:53:21.655Z,17.75
2018-09-22T01:54:20.410Z,17.81
2018-09-22T01:55:19.074Z,17.86
2018-09-22T01:56:17.631Z,17.84
2018-09-22T01:57:16.297Z,17.95
2018-09-22T01:58:15.201Z,17.96
2018-09-22T02:00:55.377Z,17.96
2018-09-22T02:03:35.806Z,18.05
2018-09-22T02:04:34.630Z,17.95
2018-09-22T02:05:33.260Z,17.9
2018-09-22T02:06:31.931Z,17.97
2018-09-22T02:07:30.665Z,18
2018-09-22T02:08:29.432Z,17.95
2018-09-22T02:09:28.138Z,17.95
2018-09-22T02:10:26.790Z,18.03
2018-09-22T02:13:06.830Z,18.11
2018-09-22T02:14:05.403Z,17.96
2018-09-22T02:15:04.249Z,17.92
2018-09-22T02:16:02.844Z,18.03
2018-09-22T02:19:41.932Z,17.87
2018-09-22T02:20:40.610Z,17.99
2018-09-22T02:21:39.209Z,17.77
2018-09-22T02:22:37.718Z,17.82
2018-09-22T02:23:36.537Z,17.77
2018-09-22T02:24:35.077Z,17.66
2018-09-22T02:25:33.684Z,17.77
2018-09-22T02:26:32.431Z,17.71
2018-09-22T02:27:30.994Z,17.89
2018-09-22T02:28:29.631Z,17.68
2018-09-22T02:29:28.386Z,17.71
2018-09-22T02:32:08.889Z,17.84
2018-09-22T02:33:07.588Z,17.79
2018-09-22T02:34:06.257Z,17.59
2018-09-22T02:35:04.921Z,17.49
2018-09-22T02:37:45.330Z,17.71
2018-09-22T02:38:43.938Z,17.79
2018-09-22T02:39:42.954Z,17.71
2018-09-22T02:40:41.686Z,17.74
2018-09-22T02:41:40.417Z,17.66
2018-09-22T03:00:30.855Z,17.62
2018-09-22T03:03:15.087Z,17.81
2018-09-22T03:05:55.351Z,17.71
2018-09-22T03:06:54.326Z,17.87
2018-09-22T03:07:52.764Z,17.72
2018-09-22T03:08:51.393Z,17.77
2018-09-22T03:09:49.977Z,17.75
2018-09-22T03:10:48.877Z,17.74
2018-09-22T03:14:28.018Z,17.82
2018-09-22T03:16:30.787Z,17.96
2018-09-22T03:19:48.401Z,17.72
2018-09-22T03:22:07.865Z,17.77
2018-09-22T03:26:37.979Z,17.68
2018-09-22T03:27:37.330Z,17.82
2018-09-22T03:31:36.146Z,17.93
2018-09-22T03:32:35.409Z,18.07
2018-09-22T03:33:33.956Z,17.89
2018-09-22T03:34:32.620Z,17.97
2018-09-22T03:35:31.279Z,17.82
2018-09-22T03:36:29.877Z,17.86
2018-09-22T03:37:28.591Z,18.03
2018-09-22T03:38:27.096Z,17.87
2018-09-22T03:39:25.758Z,17.99
2018-09-22T03:40:24.757Z,17.96
2018-09-22T03:41:25.551Z,17.99
2018-09-22T03:42:24.345Z,18.02
2018-09-22T03:46:03.455Z,17.9
2018-09-22T03:47:02.307Z,17.87
2018-09-22T03:48:00.902Z,17.89
2018-09-22T03:48:59.486Z,18.05
2018-09-22T03:49:58.108Z,18.02
2018-09-22T03:50:56.721Z,17.89
2018-09-22T03:51:55.432Z,17.9
2018-09-22T03:52:54.278Z,17.86
2018-09-22T03:53:53.004Z,17.84
2018-09-22T03:54:51.679Z,17.84
2018-09-22T03:55:50.476Z,17.89
2018-09-22T03:56:49.155Z,17.92
2018-09-22T03:57:47.912Z,17.89
2018-09-22T03:58:46.625Z,17.93
2018-09-22T03:59:45.290Z,17.95
2018-09-22T04:00:43.965Z,17.9
2018-09-22T04:01:42.753Z,17.9
2018-09-22T04:02:41.372Z,17.64
2018-09-22T04:03:40.063Z,17.56
2018-09-22T04:04:38.641Z,17.41
2018-09-22T04:05:37.224Z,17.43
2018-09-22T04:06:36.543Z,17.25
2018-09-22T04:07:35.192Z,17.21
2018-09-22T04:08:33.841Z,17.08
2018-09-22T04:09:32.493Z,17.23
2018-09-22T04:10:31.076Z,17.07
2018-09-22T04:11:29.778Z,17.11
2018-09-22T04:12:28.936Z,17.21
2018-09-22T04:13:27.280Z,17.36
2018-09-22T04:14:25.752Z,17.36
2018-09-22T04:15:24.424Z,17.49
2018-09-22T04:16:23.018Z,17.48
2018-09-22T04:17:21.613Z,17.58
2018-09-22T04:18:20.292Z,17.54
2018-09-22T04:19:18.881Z,17.64
2018-09-22T04:20:17.475Z,17.64
2018-09-22T04:21:16.189Z,17.72
2018-09-22T04:22:14.653Z,17.74
2018-09-22T04:24:54.921Z,17.58
2018-09-22T04:25:53.503Z,17.63
2018-09-22T04:26:52.060Z,17.56
2018-09-22T04:27:50.587Z,17.51
2018-09-22T04:28:49.499Z,17.46
2018-09-22T04:29:48.058Z,17.51
2018-09-22T04:30:46.690Z,17.49
2018-09-22T04:31:45.465Z,17.54
2018-09-22T04:32:44.067Z,17.62
2018-09-22T04:33:42.747Z,17.62
2018-09-22T04:34:41.286Z,17.66
2018-09-22T04:35:39.949Z,17.66
2018-09-22T04:36:38.644Z,17.68
2018-09-22T04:37:37.215Z,17.68
2018-09-22T04:38:35.939Z,17.77
2018-09-22T04:39:34.582Z,17.75
2018-09-22T04:40:33.125Z,17.78
2018-09-22T04:43:13.301Z,17.51
2018-09-22T04:45:36.207Z,17.31
2018-09-22T04:46:34.796Z,17.43
2018-09-22T04:47:33.502Z,17.43
2018-09-22T04:48:32.116Z,17.49
2018-09-22T04:49:30.685Z,17.41
2018-09-22T04:50:29.283Z,17.36
2018-09-22T04:51:27.914Z,17.22
2018-09-22T04:52:26.604Z,17.46
2018-09-22T04:53:25.269Z,17.3
2018-09-22T04:54:24.003Z,17.25
2018-09-22T04:55:22.736Z,17.21
2018-09-22T04:58:03.225Z,17.07
2018-09-22T04:59:01.939Z,17.08
2018-09-22T05:00:00.686Z,17.11
2018-09-22T05:02:41.029Z,16.96
2018-09-22T05:08:02.307Z,16.81
2018-09-22T05:09:01.803Z,16.68
2018-09-22T05:10:01.482Z,16.73
2018-09-22T05:11:00.546Z,16.76
2018-09-22T05:13:23.552Z,17.12
2018-09-22T05:16:04.652Z,17.11
2018-09-22T05:17:06.546Z,17.22
2018-09-22T05:19:16.538Z,17.38
2018-09-22T05:20:14.760Z,17.37
2018-09-22T05:21:14.376Z,17.43
2018-09-22T05:22:13.822Z,17.36
2018-09-22T05:24:58.473Z,17.38
2018-09-22T05:25:56.966Z,17.44
2018-09-22T05:26:55.882Z,17.46
2018-09-22T05:32:19.521Z,17.54
2018-09-22T05:33:18.315Z,17.62
2018-09-22T05:34:18.474Z,17.54
2018-09-22T05:38:44.239Z,17.56
2018-09-22T05:41:28.944Z,17.63
2018-09-22T05:44:09.706Z,17.59
2018-09-22T05:48:31.855Z,17.84
2018-09-22T05:51:16.279Z,17.55
2018-09-22T05:53:56.778Z,17.77
2018-09-22T05:56:37.356Z,17.95
2018-09-22T05:59:18.439Z,17.74
2018-09-22T06:00:17.481Z,17.75
2018-09-22T06:03:37.479Z,17.52
2018-09-22T06:05:54.441Z,17.4
2018-09-22T06:10:46.486Z,17.63
2018-09-22T06:11:56.268Z,17.82
2018-09-22T06:12:55.448Z,17.66
2018-09-22T06:13:54.783Z,17.63
2018-09-22T06:14:53.588Z,17.58
2018-09-22T06:15:53.931Z,17.62
2018-09-22T06:16:53.594Z,17.56
2018-09-22T06:17:52.351Z,17.56
2018-09-22T06:23:53.104Z,17.93
2018-09-22T06:25:57.453Z,17.99
2018-09-22T06:26:56.346Z,17.97
2018-09-22T06:27:54.851Z,17.97
2018-09-22T06:28:54.694Z,18.1
2018-09-22T06:30:00.383Z,17.92
2018-09-22T06:31:01.945Z,18.02
2018-09-22T06:32:02.814Z,17.99
2018-09-22T06:33:06.144Z,17.97
2018-09-22T06:34:07.582Z,18.05
2018-09-22T06:38:30.201Z,17.72
2018-09-22T06:39:29.357Z,17.84
2018-09-22T06:43:51.927Z,17.86
2018-09-22T06:44:50.760Z,17.92
2018-09-22T06:45:52.029Z,17.84
2018-09-22T06:46:52.880Z,17.95
2018-09-22T06:47:51.385Z,18.07
2018-09-22T06:52:14.916Z,18.29
2018-09-22T06:53:14.531Z,18.57
2018-09-22T06:54:13.608Z,18.62
2018-09-22T07:01:20.073Z,18.73
2018-09-22T07:15:51.386Z,19.04
2018-09-22T07:16:46.763Z,18.98
2018-09-22T07:19:32.556Z,19.13
2018-09-22T07:20:31.184Z,19.19
2018-09-22T07:21:31.447Z,19.18
2018-09-22T07:22:30.354Z,19.31
2018-09-22T07:23:29.264Z,19.16
2018-09-22T07:26:11.339Z,19.07
2018-09-22T07:27:09.821Z,19.07
2018-09-22T07:28:09.357Z,19.06
2018-09-22T07:29:08.056Z,19.29
2018-09-22T07:30:07.198Z,19.14
2018-09-22T07:32:43.404Z,18.94
2018-09-22T07:33:43.533Z,19.07
2018-09-22T07:37:06.151Z,19.02
2018-09-22T07:41:46.705Z,18.81
2018-09-22T07:44:11.439Z,18.91
2018-09-22T07:45:10.896Z,18.81
2018-09-22T07:46:09.842Z,19.02
2018-09-22T07:48:54.525Z,19.22
2018-09-22T07:49:53.005Z,19.32
2018-09-22T07:50:52.041Z,19.48
2018-09-22T07:51:52.456Z,19.39
2018-09-22T07:57:14.176Z,19.02
2018-09-22T07:58:13.139Z,18.95
2018-09-22T07:59:12.483Z,18.95
2018-09-22T08:01:53.347Z,19.06
2018-09-22T08:09:34.032Z,19.84
2018-09-22T08:12:58.173Z,20.24
2018-09-22T08:13:59.184Z,19.94
2018-09-22T08:14:58.361Z,19.98
2018-09-22T08:15:57.629Z,19.8
2018-09-22T08:16:56.428Z,19.73
2018-09-22T08:19:37.200Z,19.71
2018-09-22T08:20:35.824Z,19.74
2018-09-22T08:23:16.131Z,19.83
2018-09-22T08:24:15.021Z,19.94
2018-09-22T08:25:13.887Z,19.92
2018-09-22T08:26:13.392Z,19.83
2018-09-22T08:27:11.948Z,19.84
2018-09-22T08:29:52.646Z,19.83
2018-09-22T08:30:52.653Z,19.92
2018-09-22T08:31:52.254Z,19.91
2018-09-22T08:32:51.329Z,19.96
2018-09-22T08:33:50.568Z,19.91
2018-09-22T08:34:49.751Z,19.98
2018-09-22T08:37:30.123Z,19.88
2018-09-22T08:38:29.062Z,19.95
2018-09-22T08:39:27.886Z,20.1
2018-09-22T08:40:26.502Z,20.08
2018-09-22T08:41:25.427Z,19.94
2018-09-22T08:43:19.443Z,19.92
2018-09-22T08:45:06.042Z,19.92
2018-09-22T08:49:30.133Z,19.94
2018-09-22T08:56:51.219Z,20.24
2018-09-22T09:01:17.835Z,20.52
2018-09-22T09:07:30.548Z,20.59
2018-09-22T09:09:55.988Z,20.57
2018-09-22T09:12:37.540Z,20.61
2018-09-22T09:13:37.384Z,20.64
2018-09-22T09:18:04.534Z,20.61
2018-09-22T09:23:28.705Z,20.69
2018-09-22T09:26:08.131Z,20.72
2018-09-22T09:27:46.920Z,20.67
2018-09-22T09:28:46.095Z,20.84
2018-09-22T09:29:45.627Z,20.55
2018-09-22T09:48:07.482Z,21.1
2018-09-22T09:49:06.128Z,20.97
2018-09-22T09:50:05.185Z,20.87
2018-09-22T09:51:03.883Z,20.69
2018-09-22T09:52:02.523Z,20.73
2018-09-22T09:53:01.849Z,20.77
2018-09-22T09:54:00.932Z,20.73
2018-09-22T09:55:00.385Z,20.59
2018-09-22T09:55:59.186Z,20.47
2018-09-22T09:56:57.929Z,20.57
2018-09-22T09:57:57.297Z,20.62
2018-09-22T10:01:19.921Z,20.59
2018-09-22T10:02:19.115Z,20.64
2018-09-22T10:03:19.393Z,20.74
2018-09-22T10:04:19.108Z,20.89
2018-09-22T10:05:17.852Z,20.82
2018-09-22T10:06:16.983Z,20.87
2018-09-22T10:07:15.690Z,20.95
2018-09-22T10:08:15.133Z,20.98
2018-09-22T10:09:13.996Z,20.95
2018-09-22T10:10:13.283Z,20.91
2018-09-22T10:11:14.535Z,20.73
2018-09-22T10:12:13.818Z,20.77
2018-09-22T10:13:12.705Z,20.72
2018-09-22T10:14:11.848Z,20.62
2018-09-22T10:15:10.339Z,20.52
2018-09-22T10:16:09.042Z,20.72
2018-09-22T10:17:07.910Z,20.69
2018-09-22T10:55:43.448Z,20.55
2018-09-22T10:56:42.868Z,20.54
2018-09-22T10:57:47.466Z,20.67
2018-09-22T10:58:47.990Z,20.72
2018-09-22T10:59:46.249Z,20.67
2018-09-22T11:00:45.947Z,20.74
2018-09-22T11:01:44.870Z,20.7
2018-09-22T11:02:43.537Z,20.87
2018-09-22T11:03:42.697Z,20.92
2018-09-22T11:04:41.627Z,21.03
2018-09-22T11:05:40.659Z,21.04
2018-09-22T11:06:39.662Z,21.17
2018-09-22T11:07:38.274Z,21.28
2018-09-22T11:08:37.263Z,21.13
2018-09-22T11:09:36.391Z,21.14
2018-09-22T11:10:35.557Z,21.09
2018-09-22T11:11:33.681Z,21.27
2018-09-22T11:12:32.557Z,21.34
2018-09-22T11:13:31.278Z,21.37
2018-09-22T11:14:29.812Z,21.38
2018-09-22T11:15:28.815Z,21.24
2018-09-22T11:16:27.795Z,21.1
2018-09-22T11:17:26.530Z,21.04
2018-09-22T11:18:25.523Z,21.14
2018-09-22T11:19:24.093Z,21.24
2018-09-22T11:20:22.943Z,21.25
2018-09-22T11:21:22.235Z,21.28
2018-09-22T11:22:21.211Z,21.22
2018-09-22T11:23:20.130Z,21.28
2018-09-22T11:24:20.305Z,21.32
2018-09-22T11:25:20.253Z,21.44
2018-09-22T11:26:19.808Z,21.35
2018-09-22T11:27:18.791Z,21.32
2018-09-22T11:28:17.763Z,21.31
2018-09-22T11:29:16.469Z,21.29
2018-09-22T11:30:17.582Z,21.16
2018-09-22T11:31:16.510Z,20.97
2018-09-22T11:32:15.943Z,21.01
2018-09-22T11:33:14.715Z,20.99
2018-09-22T11:34:13.400Z,21.06
2018-09-22T11:35:12.558Z,21.04
2018-09-22T11:36:11.683Z,21.28
2018-09-22T11:37:10.894Z,21.31
2018-09-22T11:38:13.615Z,21.38
2018-09-22T11:39:13.146Z,21.56
2018-09-22T11:40:11.991Z,21.65
2018-09-22T11:41:11.436Z,21.62
2018-09-22T11:42:10.709Z,21.65
2018-09-22T11:43:09.520Z,21.62
2018-09-22T11:44:08.513Z,21.69
2018-09-22T11:45:07.667Z,21.67
2018-09-22T11:46:06.558Z,21.71
2018-09-22T11:47:06.178Z,21.77
2018-09-22T11:48:05.283Z,21.91
2018-09-22T11:49:04.356Z,21.98
2018-09-22T11:50:03.095Z,22.07
2018-09-22T11:51:02.169Z,21.94
2018-09-22T11:52:01.025Z,21.94
2018-09-22T11:52:59.735Z,22.06
2018-09-22T11:53:58.689Z,22
2018-09-22T11:54:57.409Z,22.1
2018-09-22T11:55:56.385Z,22.2
2018-09-22T11:56:55.554Z,22.21
2018-09-22T11:57:54.339Z,22.27
2018-09-22T11:58:53.839Z,22.18
2018-09-22T11:59:52.590Z,22.06
2018-09-22T12:00:52.255Z,21.94
2018-09-22T12:01:51.588Z,21.84
2018-09-22T12:02:50.536Z,21.75
2018-09-22T12:03:49.294Z,21.64
2018-09-22T12:04:48.220Z,21.72
2018-09-22T12:05:47.220Z,21.8
2018-09-22T12:06:45.985Z,21.92
2018-09-22T12:07:44.871Z,21.9
2018-09-22T12:08:43.815Z,22.02
2018-09-22T12:09:43.625Z,21.96
2018-09-22T12:10:42.396Z,21.8
2018-09-22T12:11:41.077Z,21.82
2018-09-22T12:12:40.094Z,21.94
2018-09-22T12:13:39.155Z,21.94
2018-09-22T12:14:37.785Z,21.96
2018-09-22T12:15:36.864Z,21.92
2018-09-22T12:16:35.620Z,21.86
2018-09-22T12:17:34.230Z,21.8
2018-09-22T12:18:33.378Z,21.79
2018-09-22T12:19:32.015Z,21.84
2018-09-22T12:20:31.209Z,21.83
2018-09-22T12:21:30.113Z,21.8
2018-09-22T12:22:29.296Z,21.67
2018-09-22T12:23:28.524Z,21.82
2018-09-22T12:24:27.933Z,21.88
2018-09-22T12:25:27.594Z,21.9
2018-09-22T12:26:26.991Z,21.84
2018-09-22T12:27:25.818Z,21.79
2018-09-22T12:28:25.067Z,21.75
2018-09-22T12:29:23.941Z,21.68
2018-09-22T12:30:22.670Z,21.65
2018-09-22T12:31:21.636Z,21.71
2018-09-22T12:32:21.249Z,21.86
2018-09-22T12:33:20.836Z,21.84
2018-09-22T16:33:46.399Z,21.14
2018-09-22T16:34:45.162Z,21.25
2018-09-22T16:39:07.832Z,21.27
2018-09-22T16:44:32.270Z,21.17
2018-09-22T16:45:31.244Z,21.24
2018-09-22T16:51:50.924Z,21.16
2018-09-22T16:59:04.167Z,21.07
2018-09-22T17:00:03.839Z,21.04
2018-09-22T17:01:06.993Z,21.1
2018-09-22T17:02:10.928Z,21.09
2018-09-22T17:08:16.193Z,21.06
2018-09-22T17:09:14.484Z,20.98
2018-09-22T17:10:14.201Z,20.89
2018-09-22T17:12:54.730Z,20.94
2018-09-22T17:16:33.972Z,20.95
2018-09-22T17:27:40.311Z,20.94
2018-09-22T17:30:23.903Z,20.89
2018-09-22T17:31:23.057Z,20.88
2018-09-22T17:32:22.850Z,20.89
2018-09-22T17:35:04.561Z,20.85
2018-09-22T17:36:03.475Z,20.82
2018-09-22T17:37:02.768Z,20.74
2018-09-22T17:38:01.458Z,20.72
2018-09-22T17:39:00.146Z,20.76
2018-09-22T17:39:59.341Z,20.7
2018-09-22T17:40:58.052Z,20.76
2018-09-22T17:41:56.607Z,20.73
2018-09-22T17:44:37.141Z,20.69
2018-09-22T17:45:35.843Z,20.73
2018-09-22T17:48:15.976Z,20.58
2018-09-22T17:49:14.744Z,20.55
2018-09-22T17:51:55.129Z,20.7
2018-09-22T17:54:35.464Z,20.58
2018-09-22T17:55:34.722Z,20.69
2018-09-22T17:56:33.565Z,20.57
2018-09-22T17:57:34.719Z,20.59
2018-09-22T18:00:15.055Z,20.42
2018-09-22T18:01:16.196Z,20.48
2018-09-22T18:03:56.596Z,20.57
2018-09-22T18:06:37.607Z,20.43
2018-09-22T18:07:37.436Z,20.36
2018-09-22T18:08:36.842Z,20.47
2018-09-22T18:09:39.845Z,20.41
2018-09-22T18:10:37.892Z,20.54
2018-09-22T18:11:38.070Z,20.55
2018-09-22T18:12:36.208Z,20.59
2018-09-22T18:13:35.015Z,20.61
2018-09-22T18:14:33.953Z,20.42
2018-09-22T18:15:33.071Z,20.54
2018-09-22T18:16:32.153Z,20.55
2018-09-22T18:17:31.150Z,20.59
2018-09-22T18:18:30.530Z,20.5
2018-09-22T18:19:29.452Z,20.58
2018-09-22T18:20:28.614Z,20.5
2018-09-22T18:22:59.788Z,20.5
2018-09-22T18:30:33.699Z,20.43
2018-09-22T18:36:06.379Z,20.32
2018-09-22T18:37:45.317Z,20.31
2018-09-22T18:38:47.663Z,20.38
2018-09-22T18:39:47.952Z,20.32
2018-09-22T18:42:28.872Z,20.38
2018-09-22T18:44:22.925Z,20.32
2018-09-22T18:45:22.174Z,20.32
2018-09-22T18:46:21.504Z,20.33
2018-09-22T18:50:44.158Z,20.26
2018-09-22T18:51:46.526Z,20.26
2018-09-22T18:52:46.874Z,20.24
2018-09-22T18:57:14.628Z,20.23
2018-09-22T18:59:55.571Z,20.35
2018-09-22T19:38:05.808Z,20.14
2018-09-22T19:40:48.063Z,20.11
2018-09-22T19:41:47.227Z,20.14
2018-09-22T19:42:46.600Z,20.14
2018-09-22T19:43:45.165Z,20.2
2018-09-22T19:44:44.115Z,20.2
2018-09-22T19:45:42.918Z,20.24
2018-09-22T19:46:41.994Z,20.13
2018-09-22T19:49:26.548Z,19.96
2018-09-22T19:51:49.927Z,19.95
2018-09-22T20:14:14.154Z,20.29
2018-09-22T20:15:13.282Z,20.26
2018-09-22T20:16:12.610Z,20.08
2018-09-22T20:17:11.638Z,20.03
2018-09-22T20:19:34.798Z,20.06
2018-09-22T20:20:33.571Z,19.95
2018-09-22T20:21:32.594Z,20.05
2018-09-22T20:22:31.458Z,19.94
2018-09-22T20:23:30.673Z,19.95
2018-09-22T20:26:11.464Z,20.08
2018-09-22T20:27:10.495Z,20.11
2018-09-22T20:28:10.192Z,20.18
2018-09-22T20:29:09.133Z,20.17
2018-09-22T20:30:07.995Z,19.96
2018-09-22T20:31:08.640Z,19.96
2018-09-22T20:32:07.958Z,19.86
2018-09-22T20:33:06.795Z,19.92
2018-09-22T20:34:06.079Z,19.84
2018-09-22T20:38:11.148Z,19.73
2018-09-22T20:39:09.753Z,19.76
2018-09-22T20:40:08.588Z,19.8
2018-09-22T20:41:07.563Z,19.71
2018-09-22T20:42:06.261Z,19.63
2018-09-22T20:43:05.363Z,19.62
2018-09-22T20:44:04.401Z,19.63
2018-09-22T20:45:03.510Z,19.74
2018-09-22T20:46:02.588Z,19.78
2018-09-22T20:47:02.292Z,19.73
2018-09-22T20:48:01.556Z,19.84
2018-09-22T20:49:00.549Z,19.84
2018-09-22T20:49:59.808Z,19.88
2018-09-22T20:52:40.019Z,19.99
2018-09-22T20:53:38.878Z,19.96
2018-09-22T20:54:37.828Z,19.96
2018-09-22T20:55:36.867Z,19.95
2018-09-22T20:56:35.630Z,19.95
2018-09-22T21:00:31.003Z,19.95
2018-09-22T21:03:16.603Z,20.02
2018-09-22T21:14:32.068Z,19.96
2018-09-22T21:16:47.326Z,19.94
2018-09-22T21:18:28.405Z,19.8
2018-09-22T21:19:30.823Z,19.86
2018-09-22T21:20:29.512Z,19.86
2018-09-22T21:21:28.236Z,19.83
2018-09-22T21:22:27.151Z,19.81
2018-09-22T21:23:25.836Z,19.87
2018-09-22T21:24:24.473Z,19.88
2018-09-22T21:25:23.408Z,19.83
2018-09-22T21:26:21.974Z,19.83
2018-09-22T21:27:20.623Z,19.84
2018-09-22T21:28:19.870Z,19.83
2018-09-22T21:29:18.597Z,19.83
2018-09-22T21:30:17.431Z,19.86
2018-09-22T21:31:16.334Z,19.87
2018-09-22T21:32:15.132Z,19.87
2018-09-22T21:33:14.730Z,19.78
2018-09-22T21:34:13.504Z,19.78
2018-09-22T21:35:12.174Z,19.8
2018-09-22T21:36:11.225Z,19.81
2018-09-22T21:37:09.823Z,19.8
2018-09-22T21:38:08.548Z,19.74
2018-09-22T21:39:07.328Z,19.69
2018-09-22T21:40:16.802Z,19.81
2018-09-22T21:41:14.909Z,19.69
2018-09-22T21:42:16.125Z,19.8
2018-09-22T21:43:19.476Z,19.71
2018-09-22T21:44:20.950Z,19.74
2018-09-22T21:45:23.072Z,19.83
2018-09-22T21:46:21.751Z,19.8
2018-09-22T21:47:20.608Z,19.78
2018-09-22T21:48:19.639Z,19.78
2018-09-22T21:49:18.520Z,19.77
2018-09-22T21:50:17.346Z,19.74
2018-09-22T21:51:16.673Z,19.81
2018-09-22T21:52:15.556Z,19.74
2018-09-22T21:53:14.453Z,19.76
2018-09-22T21:54:15.074Z,19.78
2018-09-22T21:55:13.691Z,19.81
2018-09-22T21:56:12.462Z,19.74
2018-09-22T21:57:11.253Z,19.84
2018-09-22T21:58:10.298Z,19.76
2018-09-22T21:59:08.964Z,19.69
2018-09-22T22:01:32.271Z,19.74
2018-09-22T22:02:31.152Z,19.74
2018-09-22T22:03:29.860Z,19.77
2018-09-22T22:04:28.804Z,19.78
2018-09-22T22:05:27.490Z,19.68
2018-09-22T22:06:26.423Z,19.78
2018-09-22T22:07:25.309Z,19.73
2018-09-22T22:08:24.152Z,19.71
2018-09-22T22:09:23.257Z,19.71
2018-09-22T22:10:21.887Z,19.73
2018-09-22T22:11:20.792Z,19.74
2018-09-22T22:12:19.400Z,19.76
2018-09-22T22:13:18.465Z,19.66
2018-09-22T22:14:17.182Z,19.61
2018-09-22T22:15:15.920Z,19.54
2018-09-22T22:16:14.552Z,19.5
2018-09-22T22:17:13.582Z,19.44
2018-09-22T22:18:12.129Z,19.33
2018-09-22T22:30:51.172Z,19.07
2018-09-22T22:31:50.023Z,19.06
2018-09-22T22:32:48.607Z,19
2018-09-22T22:33:47.426Z,19.02
2018-09-22T22:34:46.164Z,18.95
2018-09-22T22:35:44.724Z,19.07
2018-09-22T22:36:43.404Z,19.08
2018-09-22T22:37:42.156Z,19
2018-09-22T22:38:41.276Z,19.04
2018-09-22T22:39:40.259Z,19.08
2018-09-22T22:40:39.028Z,19.16
2018-09-22T22:41:37.912Z,19.06
2018-09-22T22:42:36.803Z,19.02
2018-09-22T22:43:35.737Z,18.87
2018-09-22T22:44:34.476Z,18.91
2018-09-22T22:45:33.076Z,18.95
2018-09-22T22:46:31.661Z,18.82
2018-09-22T22:47:30.453Z,18.85
2018-09-22T22:48:29.654Z,18.94
2018-09-22T22:49:28.569Z,18.87
2018-09-22T22:50:27.529Z,18.8
2018-09-22T22:51:26.217Z,18.84
2018-09-22T22:52:25.124Z,18.87
2018-09-22T22:53:23.815Z,18.7
2018-09-22T22:54:22.607Z,18.6
2018-09-22T22:55:21.337Z,18.67
2018-09-22T22:56:20.818Z,18.52
2018-09-22T22:57:19.202Z,18.62
2018-09-22T22:58:17.786Z,18.57
2018-09-22T22:59:16.665Z,18.57
2018-09-22T23:00:15.314Z,18.57
2018-09-22T23:01:14.299Z,18.52
2018-09-22T23:03:19.153Z,18.65
2018-09-22T23:07:01.957Z,18.7
2018-09-22T23:15:47.599Z,18.76
2018-09-22T23:22:54.687Z,18.65
2018-09-22T23:25:43.575Z,18.7
2018-09-22T23:28:24.314Z,18.7
2018-09-22T23:31:04.519Z,18.78
2018-09-22T23:39:53.033Z,18.92
2018-09-22T23:41:00.644Z,18.87
2018-09-22T23:55:57.751Z,18.58
